Time;durP1;ratioP1;P1;durP2;ratioP2;P2;SDS_P1;SDS_P2;PMS_P1;PMS_P2;Temp;Humidity;BMP_temperature;BMP_pressure;BME280_temperature;BME280_humidity;BME280_pressure;Samples;Min_cycle;Max_cycle;Signal;HPM_P1;HPM_P2
2022/09/26 00:07:29;;;;;;;30.80;23.90;;;;;;;5.34;77.60;98740.10;446838;1273;142945;-62
2022/09/26 00:17:35;;;;;;;24.80;20.80;;;;;;;5.26;77.92;98725.07;446083;1274;196924;-63
2022/09/26 00:27:41;;;;;;;26.80;20.30;;;;;;;5.22;78.30;98716.34;446780;1274;143704;-63
2022/09/26 00:37:46;;;;;;;28.20;19.70;;;;;;;5.10;78.09;98705.85;446833;1273;142891;-63
2022/09/26 00:47:58;;;;;;;24.10;21.50;;;;;;;5.05;78.25;98702.11;434491;1275;149016;-63
2022/09/26 00:58:07;;;;;;;26.10;19.80;;;;;;;4.96;78.46;98694.30;446627;1275;144435;-63
2022/09/26 01:08:13;;;;;;;23.80;19.60;;;;;;;4.85;78.48;98693.87;445805;1275;197155;-62
2022/09/26 01:18:20;;;;;;;26.80;21.10;;;;;;;4.80;78.63;98693.44;446602;1275;143967;-62
2022/09/26 01:28:41;;;;;;;25.40;19.90;;;;;;;4.74;78.73;98686.28;446569;1275;143654;-62
2022/09/26 01:39:00;;;;;;;27.30;20.10;;;;;;;4.74;78.73;98681.46;445821;1273;144225;-64
2022/09/26 01:49:16;;;;;;;29.50;22.10;;;;;;;4.69;79.02;98678.75;446502;1275;142279;-63
2022/09/26 01:59:25;;;;;;;25.70;20.90;;;;;;;4.66;78.75;98668.90;446242;1272;142744;-62
2022/09/26 02:09:38;;;;;;;30.30;22.00;;;;;;;4.77;79.13;98663.78;446979;1273;145358;-63
2022/09/26 02:19:52;;;;;;;42.40;26.10;;;;;;;5.23;81.47;98652.20;447062;1271;144052;-62
2022/09/26 02:29:58;;;;;;;43.40;28.20;;;;;;;5.78;83.52;98647.67;446285;1273;142753;-63
2022/09/26 02:40:05;;;;;;;36.10;27.10;;;;;;;6.20;84.53;98642.27;445207;1273;144228;-62
2022/09/26 02:50:21;;;;;;;42.10;29.70;;;;;;;6.41;84.99;98632.61;445776;1275;143663;-63
2022/09/26 03:00:31;;;;;;;43.10;27.60;;;;;;;6.60;85.46;98632.14;447058;1273;145041;-63
2022/09/26 03:10:40;;;;;;;39.70;27.50;;;;;;;6.72;85.71;98631.60;446965;1273;143789;-62
2022/09/26 03:20:46;;;;;;;32.30;23.50;;;;;;;6.73;85.77;98628.18;446173;1273;203128;-63
2022/09/26 03:30:52;;;;;;;32.00;23.40;;;;;;;6.66;85.88;98613.68;446982;1273;142713;-62
2022/09/26 03:40:59;;;;;;;33.30;24.30;;;;;;;6.60;86.04;98604.86;446797;1274;144148;-62
2022/09/26 03:51:08;;;;;;;28.20;23.20;;;;;;;6.52;86.35;98600.11;446831;1273;142411;-62
2022/09/26 04:01:15;;;;;;;30.20;24.10;;;;;;;6.46;86.59;98590.73;446826;1273;143895;-63
2022/09/26 04:11:23;;;;;;;28.10;25.10;;;;;;;6.50;86.74;98579.55;445267;1274;144356;-68
2022/09/26 04:21:29;;;;;;;30.40;25.30;;;;;;;6.58;87.14;98572.25;446760;1272;142547;-67
2022/09/26 04:31:36;;;;;;;29.70;25.00;;;;;;;6.67;87.13;98557.95;446268;1275;142559;-66
2022/09/26 04:41:42;;;;;;;27.50;23.70;;;;;;;6.77;87.07;98561.89;446016;1273;143073;-71
2022/09/26 04:51:48;;;;;;;28.10;25.00;;;;;;;6.89;87.10;98561.56;446337;1273;142513;-68
2022/09/26 05:01:55;;;;;;;28.80;25.00;;;;;;;6.98;87.02;98565.19;446875;1273;142814;-66
2022/09/26 05:12:01;;;;;;;26.90;23.80;;;;;;;7.17;87.07;98554.54;446076;1274;144885;-67
2022/09/26 05:22:06;;;;;;;28.30;23.40;;;;;;;7.38;86.82;98551.40;446518;1273;142731;-68
2022/09/26 05:32:19;;;;;;;26.20;23.40;;;;;;;7.58;86.54;98543.31;445978;1274;145580;-67
2022/09/26 05:42:25;;;;;;;24.50;21.90;;;;;;;7.77;86.88;98539.55;446493;1274;143912;-68
2022/09/26 05:52:31;;;;;;;26.70;23.90;;;;;;;7.98;86.52;98539.16;442890;1274;142260;-67
2022/09/26 06:02:37;;;;;;;25.60;22.90;;;;;;;8.15;86.44;98536.40;430276;1274;143157;-68
2022/09/26 06:12:42;;;;;;;27.00;22.30;;;;;;;8.34;86.15;98540.48;446264;1275;142325;-67
2022/09/26 06:22:54;;;;;;;23.50;21.00;;;;;;;8.58;85.90;98540.56;446270;1275;185558;-66
2022/09/26 06:33:00;;;;;;;26.30;22.20;;;;;;;8.93;85.45;98544.09;445524;1275;143064;-68
2022/09/26 06:43:06;;;;;;;25.20;22.20;;;;;;;9.24;84.91;98542.20;446842;1273;197336;-67
2022/09/26 06:53:12;;;;;;;24.60;22.00;;;;;;;9.67;84.78;98544.73;446274;1272;143048;-67
2022/09/26 07:03:18;;;;;;;26.20;22.00;;;;;;;10.19;84.05;98540.05;447052;1273;143978;-67
2022/09/26 07:13:24;;;;;;;22.10;19.70;;;;;;;11.01;83.12;98537.30;447059;1272;187328;-68
2022/09/26 07:23:30;;;;;;;22.00;19.90;;;;;;;11.86;81.70;98542.16;446294;1272;143259;-68
2022/09/26 07:33:35;;;;;;;21.30;19.20;;;;;;;12.77;79.94;98539.15;447000;1271;143075;-68
2022/09/26 07:43:41;;;;;;;21.50;19.30;;;;;;;14.93;78.05;98541.59;447032;1273;142639;-68
2022/09/26 07:54:07;;;;;;;18.80;17.00;;;;;;;19.80;71.56;98524.05;446797;1274;143372;-69
2022/09/26 08:04:13;;;;;;;16.80;15.20;;;;;;;20.69;65.20;98520.92;447072;1271;144688;-68
2022/09/26 08:14:19;;;;;;;18.60;16.80;;;;;;;24.07;60.39;98504.86;433094;1273;143672;-67
2022/09/26 08:24:25;;;;;;;17.40;16.00;;;;;;;28.08;54.72;98485.98;430108;1273;183984;-67
2022/09/26 08:34:33;;;;;;;15.20;13.90;;;;;;;31.56;47.44;98484.27;430027;1275;141603;-68
2022/09/26 08:44:59;;;;;;;15.70;14.00;;;;;;;32.57;42.87;98476.42;446257;1273;144651;-68
2022/09/26 08:55:13;;;;;;;16.50;15.00;;;;;;;31.57;40.10;98468.50;446900;1273;184754;-68
2022/09/26 09:05:23;;;;;;;15.80;14.50;;;;;;;26.18;42.55;98457.26;446295;1273;142914;-68
2022/09/26 09:15:43;;;;;;;16.80;15.40;;;;;;;24.22;45.39;98451.03;447118;1273;141962;-69
2022/09/26 09:26:04;;;;;;;17.80;15.60;;;;;;;22.88;46.67;98443.55;446714;1275;197238;-68
2022/09/26 09:36:37;;;;;;;17.60;15.90;;;;;;;21.71;48.76;98436.48;438934;1273;142570;-67
2022/09/26 09:46:43;;;;;;;18.00;16.10;;;;;;;20.77;50.29;98445.66;447055;1273;142308;-67
2022/09/26 09:57:07;;;;;;;17.80;16.10;;;;;;;20.41;51.27;98436.80;446286;1273;142197;-68
2022/09/26 10:07:13;;;;;;;15.20;13.40;;;;;;;21.00;51.68;98431.44;447004;1273;144846;-69
2022/09/26 10:17:21;;;;;;;13.90;12.50;;;;;;;21.44;51.09;98427.34;446328;1273;142667;-67
2022/09/26 10:27:36;;;;;;;8.90;8.10;;;;;;;21.40;50.64;98432.63;447014;1273;143722;-68
2022/09/26 10:37:42;;;;;;;11.20;10.20;;;;;;;20.48;50.93;98432.33;447086;1273;195792;-68
2022/09/26 10:47:50;;;;;;;10.60;9.70;;;;;;;20.01;51.71;98427.58;446266;1273;144323;-68
2022/09/26 10:57:58;;;;;;;10.00;9.00;;;;;;;19.36;52.48;98425.73;447109;1273;142217;-68
2022/09/26 11:08:07;;;;;;;9.40;8.00;;;;;;;19.42;53.09;98416.53;446328;1273;163770;-66
2022/09/26 11:18:25;;;;;;;9.80;8.90;;;;;;;19.73;52.87;98408.63;447098;1271;145719;-67
2022/09/26 11:28:38;;;;;;;9.00;8.20;;;;;;;19.98;52.28;98410.02;440542;1273;143210;-68
2022/09/26 11:38:50;;;;;;;18.50;9.50;;;;;;;19.94;52.31;98403.61;441111;1273;142260;-68
2022/09/26 11:49:18;;;;;;;9.10;8.30;;;;;;;19.64;52.74;98397.23;447069;1273;142265;-69
2022/09/26 11:59:37;;;;;;;12.20;10.30;;;;;;;19.66;52.64;98388.11;446328;1273;161050;-68
2022/09/26 12:10:00;;;;;;;10.50;9.60;;;;;;;19.67;53.08;98377.00;446630;1275;144822;-68
2022/09/26 12:20:17;;;;;;;10.70;9.60;;;;;;;19.73;52.84;98373.21;446336;1273;142407;-68
2022/09/26 12:30:31;;;;;;;11.50;7.80;;;;;;;19.87;52.87;98359.10;447108;1273;142918;-68
2022/09/26 12:40:44;;;;;;;13.10;7.30;;;;;;;19.83;52.39;98353.65;447062;1273;143262;-68
2022/09/26 12:50:59;;;;;;;8.80;7.90;;;;;;;19.58;51.93;98352.03;446327;1273;143361;-68
2022/09/26 13:01:46;;;;;;;9.00;8.10;;;;;;;19.20;52.44;98345.67;447037;1273;142344;-67
2022/09/26 13:12:05;;;;;;;9.60;8.30;;;;;;;18.99;53.15;98333.30;445775;1275;144687;-67
2022/09/26 13:22:19;;;;;;;;;;;;;;;19.03;53.52;98323.95;446568;1275;142075;-68
2022/09/26 13:32:33;;;;;;;10.50;7.90;;;;;;;19.09;53.50;98319.52;446675;1273;129309;-68
2022/09/26 13:42:45;;;;;;;9.40;8.10;;;;;;;19.07;53.96;98320.66;447058;1273;142173;-68
2022/09/26 13:53:06;;;;;;;9.80;8.80;;;;;;;18.54;53.82;98316.74;447090;1273;144798;-68
2022/09/26 14:03:36;;;;;;;20.90;16.90;;;;;;;18.07;54.57;98309.64;446864;1274;142711;-68
2022/09/26 14:13:42;;;;;;;8.80;7.30;;;;;;;17.36;55.55;98316.36;446466;1275;142573;-68
2022/09/26 14:23:49;;;;;;;6.50;3.60;;;;;;;16.59;57.11;98316.45;438763;1273;146683;-69
2022/09/26 14:34:13;;;;;;;5.60;4.20;;;;;;;16.12;58.72;98322.55;434800;1273;145309;-68
2022/09/26 14:44:21;;;;;;;5.10;4.50;;;;;;;15.84;59.95;98321.63;437708;1273;146050;-69
2022/09/26 14:54:34;;;;;;;4.00;3.60;;;;;;;15.43;60.85;98329.42;435959;1275;144503;-68
2022/09/26 15:04:40;;;;;;;4.70;3.30;;;;;;;15.08;61.83;98332.10;436276;1273;145861;-69
2022/09/26 15:14:51;;;;;;;7.50;5.80;;;;;;;14.78;63.18;98328.80;446261;1273;143215;-68
2022/09/26 15:25:07;;;;;;;12.00;9.30;;;;;;;14.26;64.33;98335.00;430100;1272;142590;-68
2022/09/26 15:35:15;;;;;;;11.00;8.50;;;;;;;13.91;65.78;98343.05;431018;1273;143288;-67
2022/09/26 15:45:31;;;;;;;8.80;7.90;;;;;;;13.74;66.66;98352.39;430513;1273;142413;-68
2022/09/26 15:55:42;;;;;;;10.40;8.40;;;;;;;13.56;68.04;98353.61;430299;1274;142451;-68
2022/09/26 16:05:49;;;;;;;9.70;7.60;;;;;;;13.43;69.04;98343.57;431067;1273;144749;-68
2022/09/26 16:16:04;;;;;;;10.30;9.40;;;;;;;13.34;69.82;98327.67;429904;1274;143831;-66
2022/09/26 16:26:23;;;;;;;10.80;9.70;;;;;;;13.16;70.56;98305.02;429551;1273;143200;-67
2022/09/26 16:36:31;;;;;;;13.30;11.90;;;;;;;12.84;71.36;98306.41;431703;1273;147438;-69
2022/09/26 16:46:38;;;;;;;18.70;15.10;;;;;;;12.46;72.33;98312.00;430365;1273;146203;-67
2022/09/26 16:56:46;;;;;;;26.10;21.20;;;;;;;12.15;73.13;98311.14;429408;1273;144510;-67
2022/09/26 17:06:52;;;;;;;25.50;22.40;;;;;;;12.01;73.93;98316.42;432085;1273;144515;-69
2022/09/26 17:16:59;;;;;;;27.50;22.80;;;;;;;11.88;74.75;98314.95;429888;1273;145441;-68
2022/09/26 17:27:08;;;;;;;24.80;22.20;;;;;;;11.66;75.25;98313.31;431411;1273;142495;-68
2022/09/26 17:37:15;;;;;;;;;;;;;;;11.47;75.83;98312.92;429852;1273;144150;-67
2022/09/26 17:47:21;;;;;;;23.80;19.10;;;;;;;11.24;76.29;98314.35;429383;1273;183523;-67
2022/09/26 17:57:28;;;;;;;25.00;21.20;;;;;;;11.09;76.88;98316.05;429522;1274;183706;-66
2022/09/26 18:07:39;;;;;;;27.70;24.70;;;;;;;10.97;77.46;98314.09;436478;1272;143097;-66
2022/09/26 18:17:45;;;;;;;27.30;21.30;;;;;;;10.84;78.04;98311.64;430782;1273;142646;-66
2022/09/26 18:27:55;;;;;;;31.10;22.10;;;;;;;10.70;78.58;98308.05;432417;1273;141909;-69
2022/09/26 18:38:01;;;;;;;28.30;22.90;;;;;;;10.59;79.33;98298.55;432794;1273;147291;-67
2022/09/26 18:48:11;;;;;;;26.20;22.10;;;;;;;10.57;79.77;98291.32;442342;1274;201049;-67
2022/09/26 18:58:26;;;;;;;36.10;28.20;;;;;;;10.51;79.91;98289.42;437055;1273;200655;-69
2022/09/26 19:08:35;;;;;;;29.60;23.80;;;;;;;10.36;80.27;98285.01;437176;1273;146129;-68
2022/09/26 19:18:41;;;;;;;33.00;24.40;;;;;;;10.36;80.90;98286.74;429887;1274;143477;-66
2022/09/26 19:28:47;;;;;;;25.50;20.50;;;;;;;10.39;80.96;98291.09;431127;1273;146370;-69
2022/09/26 19:38:53;;;;;;;31.80;23.50;;;;;;;10.40;81.36;98289.38;430278;1273;143308;-66
2022/09/26 19:48:59;;;;;;;36.60;24.30;;;;;;;10.47;81.79;98294.92;430170;1273;144714;-67
2022/09/26 19:59:04;;;;;;;30.00;22.20;;;;;;;10.48;81.83;98295.96;428949;1273;146360;-66
2022/09/26 20:09:16;;;;;;;30.50;24.80;;;;;;;10.44;81.94;98303.26;433621;1273;146901;-67
2022/09/26 20:19:28;;;;;;;27.90;24.80;;;;;;;10.52;82.43;98305.92;446745;1273;143093;-67
2022/09/26 20:39:54;;;;;;;31.70;27.50;;;;;;;10.87;83.42;98302.26;430478;1273;146440;-68
2022/09/26 20:50:02;;;;;;;31.20;27.80;;;;;;;10.82;83.52;98296.26;430611;1275;143841;-67
2022/09/26 21:00:13;;;;;;;32.50;27.60;;;;;;;10.76;83.95;98303.36;445057;1273;152096;-68
2022/09/26 21:10:24;;;;;;;31.70;28.00;;;;;;;10.89;84.15;98294.04;443114;1275;189562;-68
2022/09/26 21:20:33;;;;;;;31.50;28.10;;;;;;;10.89;84.15;98283.54;435375;1274;143482;-68
2022/09/26 21:30:39;;;;;;;29.50;24.80;;;;;;;10.62;84.25;98278.31;439238;1274;142040;-67
2022/09/26 21:40:47;;;;;;;33.20;29.60;;;;;;;10.24;84.32;98266.94;435721;1274;143129;-68
2022/09/26 21:50:56;;;;;;;35.80;29.90;;;;;;;9.90;84.62;98266.45;431055;1273;142737;-69
2022/09/26 22:01:03;;;;;;;33.60;28.20;;;;;;;9.70;85.33;98256.67;446639;1274;143302;-67
2022/09/26 22:11:09;;;;;;;34.40;29.20;;;;;;;9.42;84.78;98251.39;430295;1275;142600;-69
2022/09/26 22:21:15;;;;;;;32.30;29.10;;;;;;;9.05;84.90;98242.79;446548;1273;143193;-68
2022/09/26 22:31:21;;;;;;;32.90;29.30;;;;;;;8.76;85.27;98241.21;443695;1273;185385;-68
2022/09/26 22:41:27;;;;;;;33.40;28.90;;;;;;;8.50;85.63;98234.33;440055;1274;203406;-69
2022/09/26 22:51:33;;;;;;;31.60;26.60;;;;;;;8.28;85.74;98229.30;446436;1274;146333;-69
2022/09/26 23:01:39;;;;;;;31.30;25.90;;;;;;;8.07;85.71;98222.37;439476;1273;143012;-68
2022/09/26 23:11:45;;;;;;;37.10;30.30;;;;;;;7.78;85.44;98220.04;446040;1274;143317;-66
2022/09/26 23:21:51;;;;;;;39.80;31.30;;;;;;;7.60;85.53;98215.38;446773;1274;144066;-67
2022/09/26 23:31:57;;;;;;;34.60;28.20;;;;;;;7.67;85.98;98208.25;446842;1274;143953;-67
2022/09/26 23:42:03;;;;;;;33.60;28.20;;;;;;;7.86;85.85;98202.30;446743;1275;145304;-67
2022/09/26 23:52:09;;;;;;;37.60;26.40;;;;;;;8.13;86.63;98190.00;446864;1273;146450;-68
